createdAt,value
2017-12-06T00:00:07.278Z,4.35
2017-12-06T00:02:35.169Z,3.78
2017-12-06T00:05:03.134Z,5.15
2017-12-06T00:07:33.160Z,3.60
2017-12-06T00:10:01.070Z,4.75
2017-12-06T00:12:35.198Z,3.97
2017-12-06T00:15:08.764Z,5.18
2017-12-06T00:17:36.635Z,4.50
2017-12-06T00:20:04.574Z,3.85
2017-12-06T00:22:32.540Z,4.35
2017-12-06T00:25:00.535Z,4.30
2017-12-06T00:27:33.417Z,5.25
2017-12-06T00:30:01.360Z,4.80
2017-12-06T00:32:29.287Z,5.32
2017-12-06T00:34:59.897Z,5.30
2017-12-06T00:37:27.795Z,4.62
2017-12-06T00:39:55.658Z,4.65
2017-12-06T00:42:24.336Z,4.90
2017-12-06T00:44:52.986Z,4.93
2017-12-06T00:47:20.938Z,5.07
2017-12-06T00:49:48.830Z,5.15
2017-12-06T00:52:16.759Z,4.28
2017-12-06T00:54:44.628Z,4.55
2017-12-06T00:57:14.368Z,5.85
2017-12-06T00:59:42.237Z,6.00
2017-12-06T01:02:10.164Z,5.20
2017-12-06T01:04:38.029Z,5.00
2017-12-06T01:07:05.974Z,5.07
2017-12-06T01:09:33.891Z,5.65
2017-12-06T01:12:01.825Z,5.57
2017-12-06T01:14:30.456Z,5.40
2017-12-06T01:16:58.368Z,4.30
2017-12-06T01:19:26.244Z,5.15
2017-12-06T01:21:54.161Z,4.82
2017-12-06T01:24:22.041Z,4.90
2017-12-06T01:26:49.950Z,4.68
2017-12-06T01:29:18.586Z,4.53
2017-12-06T01:31:46.499Z,4.87
2017-12-06T01:34:14.376Z,5.30
2017-12-06T01:36:42.314Z,4.30
2017-12-06T01:39:10.212Z,4.93
2017-12-06T01:41:38.079Z,5.35
2017-12-06T01:44:06.796Z,5.00
2017-12-06T01:46:34.731Z,5.35
2017-12-06T01:49:03.470Z,4.82
2017-12-06T01:51:31.371Z,5.37
2017-12-06T01:53:59.348Z,5.07
2017-12-06T01:56:27.440Z,4.45
2017-12-06T01:58:56.200Z,5.00
2017-12-06T02:01:24.101Z,4.40
2017-12-06T02:03:52.047Z,4.65
2017-12-06T02:06:19.967Z,5.40
2017-12-06T02:08:47.906Z,5.40
2017-12-06T02:11:15.795Z,5.45
2017-12-06T02:13:43.715Z,5.75
2017-12-06T02:16:11.620Z,5.70
2017-12-06T02:18:39.547Z,4.95
2017-12-06T02:21:07.488Z,4.97
2017-12-06T02:23:35.466Z,5.07
2017-12-06T02:26:10.399Z,5.22
2017-12-06T02:28:38.401Z,5.37
2017-12-06T02:31:06.296Z,5.40
2017-12-06T02:33:35.077Z,6.90
2017-12-06T02:36:03.745Z,5.32
2017-12-06T02:38:31.707Z,5.60
2017-12-06T02:41:11.361Z,5.62
2017-12-06T02:43:50.954Z,5.97
2017-12-06T02:46:18.861Z,6.10
2017-12-06T02:48:46.847Z,5.47
2017-12-06T02:51:14.731Z,6.20
2017-12-06T02:53:42.725Z,6.32
2017-12-06T02:56:10.669Z,6.30
2017-12-06T02:58:39.350Z,5.30
2017-12-06T03:01:08.065Z,5.62
2017-12-06T03:03:35.970Z,6.78
2017-12-06T03:06:03.942Z,6.12
2017-12-06T03:08:31.857Z,6.22
2017-12-06T03:10:59.803Z,7.47
2017-12-06T03:13:27.737Z,6.18
2017-12-06T03:15:59.581Z,7.30
2017-12-06T03:18:27.493Z,7.55
2017-12-06T03:20:55.425Z,6.82
2017-12-06T03:23:23.317Z,6.53
2017-12-06T03:25:51.238Z,6.55
2017-12-06T03:28:19.905Z,7.05
2017-12-06T03:30:47.852Z,6.90
2017-12-06T03:33:15.756Z,7.25
2017-12-06T03:35:44.458Z,7.18
2017-12-06T03:38:12.348Z,6.30
2017-12-06T03:40:40.302Z,7.37
2017-12-06T03:43:08.206Z,5.43
2017-12-06T03:45:36.156Z,5.60
2017-12-06T03:48:04.045Z,5.12
2017-12-06T03:50:31.988Z,6.97
2017-12-06T03:52:59.866Z,6.80
2017-12-06T03:55:27.812Z,7.18
2017-12-06T03:57:55.748Z,6.22
2017-12-06T04:00:23.708Z,6.00
2017-12-06T04:02:51.606Z,7.03
2017-12-06T04:05:19.490Z,6.40
2017-12-06T04:07:47.599Z,5.65
2017-12-06T04:10:15.494Z,7.10
2017-12-06T04:12:43.423Z,6.32
2017-12-06T04:15:11.313Z,7.43
2017-12-06T04:17:39.245Z,7.18
2017-12-06T04:20:07.139Z,6.10
2017-12-06T04:22:39.078Z,6.00
2017-12-06T04:25:06.960Z,6.35
2017-12-06T04:27:34.900Z,8.60
2017-12-06T04:30:02.784Z,7.35
2017-12-06T04:32:30.730Z,7.07
2017-12-06T04:34:58.676Z,7.32
2017-12-06T04:37:30.297Z,7.40
2017-12-06T04:39:58.199Z,7.60
2017-12-06T04:42:26.165Z,7.37
2017-12-06T04:44:54.064Z,6.53
2017-12-06T04:47:22.781Z,6.30
2017-12-06T04:49:50.702Z,6.78
2017-12-06T04:52:18.643Z,7.12
2017-12-06T04:54:46.572Z,6.30
2017-12-06T04:57:14.526Z,6.85
2017-12-06T04:59:43.180Z,6.85
2017-12-06T05:02:11.104Z,7.00
2017-12-06T05:04:39.016Z,6.82
2017-12-06T05:07:10.654Z,6.32
2017-12-06T05:09:38.579Z,5.82
2017-12-06T05:12:07.253Z,8.07
2017-12-06T05:14:43.114Z,7.18
2017-12-06T05:17:13.433Z,6.95
2017-12-06T05:19:45.203Z,7.45
2017-12-06T05:22:19.269Z,7.00
2017-12-06T05:24:53.469Z,6.87
2017-12-06T05:27:26.660Z,6.70
2017-12-06T05:29:56.403Z,6.87
2017-12-06T05:32:25.897Z,7.20
2017-12-06T05:34:55.352Z,7.15
2017-12-06T05:37:23.341Z,6.70
2017-12-06T05:39:51.304Z,7.53
2017-12-06T05:42:19.196Z,7.35
2017-12-06T05:44:47.176Z,6.22
2017-12-06T05:47:15.226Z,7.05
2017-12-06T05:49:48.596Z,7.20
2017-12-06T05:52:23.276Z,6.30
2017-12-06T05:54:59.248Z,6.75
2017-12-06T05:57:28.110Z,6.70
2017-12-06T05:59:58.284Z,6.90
2017-12-06T06:02:26.268Z,5.53
2017-12-06T06:04:54.208Z,5.28
2017-12-06T06:07:30.511Z,6.75
2017-12-06T06:09:58.466Z,6.28
2017-12-06T06:12:26.425Z,6.45
2017-12-06T06:14:54.381Z,6.35
2017-12-06T06:17:22.263Z,5.72
2017-12-06T06:19:50.207Z,5.47
2017-12-06T06:22:18.093Z,4.95
2017-12-06T06:24:46.057Z,5.75
2017-12-06T06:27:13.957Z,5.37
2017-12-06T06:29:41.926Z,5.65
2017-12-06T06:32:09.816Z,5.90
2017-12-06T06:34:37.755Z,5.68
2017-12-06T06:37:06.532Z,5.20
2017-12-06T06:39:34.477Z,5.28
2017-12-06T06:42:02.389Z,5.20
2017-12-06T06:44:31.023Z,5.78
2017-12-06T06:46:58.976Z,6.30
2017-12-06T06:49:26.870Z,5.28
2017-12-06T06:51:54.909Z,5.50
2017-12-06T06:54:22.832Z,5.07
2017-12-06T06:56:50.801Z,5.00
2017-12-06T06:59:18.696Z,4.85
2017-12-06T07:01:46.637Z,5.55
2017-12-06T07:04:14.528Z,4.60
2017-12-06T07:06:44.423Z,4.55
2017-12-06T07:09:12.342Z,5.10
2017-12-06T07:11:40.288Z,4.50
2017-12-06T07:14:08.948Z,5.53
2017-12-06T07:16:36.874Z,5.40
2017-12-06T07:19:04.765Z,4.85
2017-12-06T07:21:32.704Z,4.32
2017-12-06T07:24:00.675Z,4.12
2017-12-06T07:26:28.675Z,3.97
2017-12-06T07:28:56.672Z,4.75
2017-12-06T07:31:24.683Z,4.22
2017-12-06T07:33:52.608Z,4.70
2017-12-06T07:36:20.590Z,4.68
2017-12-06T07:38:48.490Z,4.90
2017-12-06T07:41:16.450Z,4.45
2017-12-06T07:43:44.374Z,4.50
2017-12-06T07:46:12.321Z,5.35
2017-12-06T07:48:40.284Z,4.72
2017-12-06T07:51:08.181Z,4.93
2017-12-06T07:53:36.129Z,4.30
2017-12-06T07:56:04.034Z,4.70
2017-12-06T07:58:37.464Z,5.25
2017-12-06T08:01:05.374Z,4.57
2017-12-06T08:03:33.326Z,4.87
2017-12-06T08:06:01.264Z,4.43
2017-12-06T08:08:29.213Z,4.55
2017-12-06T08:10:57.909Z,4.40
2017-12-06T08:13:25.888Z,3.97
2017-12-06T08:15:53.787Z,4.18
2017-12-06T08:18:21.783Z,4.82
2017-12-06T08:20:49.729Z,4.00
2017-12-06T08:23:17.697Z,4.32
2017-12-06T08:25:45.696Z,4.05
2017-12-06T08:28:13.673Z,3.83
2017-12-06T08:30:41.664Z,3.95
2017-12-06T08:33:09.580Z,3.58
2017-12-06T08:35:37.552Z,3.72
2017-12-06T08:38:05.497Z,3.80
2017-12-06T08:40:33.445Z,4.12
2017-12-06T08:43:01.374Z,3.50
2017-12-06T08:45:29.356Z,4.00
2017-12-06T08:47:57.339Z,4.18
2017-12-06T08:50:25.313Z,3.90
2017-12-06T08:52:53.288Z,3.55
2017-12-06T08:55:21.217Z,3.67
2017-12-06T08:57:49.181Z,4.00
2017-12-06T09:00:17.125Z,3.95
2017-12-06T09:02:45.106Z,3.60
2017-12-06T09:05:13.027Z,4.35
2017-12-06T09:07:41.005Z,3.62
2017-12-06T09:10:08.981Z,3.70
2017-12-06T09:12:37.018Z,3.20
2017-12-06T09:15:04.960Z,3.25
2017-12-06T09:17:35.023Z,3.80
2017-12-06T09:20:02.981Z,3.85
2017-12-06T09:22:30.944Z,3.45
2017-12-06T09:24:58.858Z,2.83
2017-12-06T09:27:26.827Z,3.20
2017-12-06T09:29:54.758Z,3.00
2017-12-06T09:32:22.743Z,3.83
2017-12-06T09:34:50.708Z,3.37
2017-12-06T09:37:18.684Z,3.10
2017-12-06T09:39:47.238Z,3.80
2017-12-06T09:42:15.239Z,3.60
2017-12-06T09:44:43.270Z,2.80
2017-12-06T09:47:12.167Z,3.35
2017-12-06T09:49:40.074Z,3.08
2017-12-06T09:52:08.073Z,2.50
2017-12-06T09:54:36.769Z,3.95
2017-12-06T09:57:04.788Z,3.30
2017-12-06T09:59:32.720Z,4.10
2017-12-06T10:02:03.038Z,3.15
2017-12-06T10:04:30.928Z,2.95
2017-12-06T10:06:58.908Z,2.25
2017-12-06T10:09:26.824Z,7.20
2017-12-06T10:11:54.725Z,5.45
2017-12-06T10:14:22.694Z,2.40
2017-12-06T10:16:50.890Z,3.15
2017-12-06T10:19:18.881Z,2.60
2017-12-06T10:21:46.828Z,3.37
2017-12-06T10:24:14.816Z,2.20
2017-12-06T10:26:42.850Z,3.25
2017-12-06T10:29:10.813Z,3.00
2017-12-06T10:31:38.780Z,2.67
2017-12-06T10:34:08.224Z,2.90
2017-12-06T10:36:36.482Z,2.60
2017-12-06T10:39:04.614Z,2.40
2017-12-06T10:41:32.549Z,2.95
2017-12-06T10:44:00.589Z,3.05
2017-12-06T10:46:28.865Z,3.55
2017-12-06T10:48:56.842Z,2.95
2017-12-06T10:51:24.773Z,3.17
2017-12-06T10:53:53.840Z,2.92
2017-12-06T10:56:21.781Z,3.20
2017-12-06T10:58:49.776Z,3.50
2017-12-06T11:01:17.670Z,3.45
2017-12-06T11:03:45.730Z,2.90
2017-12-06T11:06:13.672Z,2.92
2017-12-06T11:08:41.702Z,3.55
2017-12-06T11:11:10.369Z,2.80
2017-12-06T11:13:38.337Z,3.10
2017-12-06T11:16:06.340Z,2.15
2017-12-06T11:18:34.290Z,3.55
2017-12-06T11:21:02.246Z,3.10
2017-12-06T11:23:30.192Z,3.40
2017-12-06T11:25:58.128Z,3.65
2017-12-06T11:28:26.088Z,2.55
2017-12-06T11:30:54.044Z,2.72
2017-12-06T11:33:23.877Z,2.85
2017-12-06T11:35:51.911Z,2.60
2017-12-06T11:38:19.818Z,2.85
2017-12-06T11:40:47.790Z,2.60
2017-12-06T11:43:15.671Z,3.42
2017-12-06T11:45:43.642Z,2.60
2017-12-06T11:48:11.627Z,2.78
2017-12-06T11:50:39.617Z,3.10
2017-12-06T11:53:07.916Z,3.10
2017-12-06T11:55:35.926Z,3.40
2017-12-06T11:58:04.072Z,2.92
2017-12-06T12:00:32.235Z,3.45
2017-12-06T12:03:00.119Z,2.70
2017-12-06T12:05:28.803Z,2.70
2017-12-06T12:07:56.917Z,2.35
2017-12-06T12:10:24.908Z,2.53
2017-12-06T12:12:52.824Z,2.40
2017-12-06T12:15:20.748Z,3.22
2017-12-06T12:17:48.900Z,1.90
2017-12-06T12:20:16.807Z,2.20
2017-12-06T12:22:44.961Z,3.08
2017-12-06T12:25:12.859Z,2.20
2017-12-06T12:27:41.483Z,1.87
2017-12-06T12:30:09.375Z,2.70
2017-12-06T12:32:37.330Z,2.45
2017-12-06T12:35:05.235Z,2.47
2017-12-06T12:37:33.318Z,2.85
2017-12-06T12:40:02.019Z,2.70
2017-12-06T12:42:32.963Z,2.03
2017-12-06T12:45:00.914Z,2.80
2017-12-06T12:47:28.946Z,2.60
2017-12-06T12:49:56.938Z,2.92
2017-12-06T12:52:24.968Z,2.10
2017-12-06T12:54:53.774Z,3.00
2017-12-06T12:57:22.054Z,2.85
2017-12-06T12:59:50.030Z,2.92
2017-12-06T13:02:20.029Z,2.60
2017-12-06T13:04:48.012Z,2.60
2017-12-06T13:07:16.036Z,2.92
2017-12-06T13:09:44.711Z,3.35
2017-12-06T13:12:13.251Z,2.53
2017-12-06T13:14:41.271Z,2.35
2017-12-06T13:17:09.307Z,3.53
2017-12-06T13:19:37.630Z,2.70
2017-12-06T13:22:05.639Z,2.40
2017-12-06T13:24:33.684Z,2.80
2017-12-06T13:27:01.736Z,3.28
2017-12-06T13:29:29.885Z,3.00
2017-12-06T13:31:58.248Z,2.70
2017-12-06T13:34:27.503Z,3.60
2017-12-06T13:36:55.623Z,2.67
2017-12-06T13:39:23.671Z,2.90
2017-12-06T13:41:51.638Z,2.95
2017-12-06T13:44:20.422Z,3.12
2017-12-06T13:46:49.396Z,2.92
2017-12-06T13:49:17.567Z,2.85
2017-12-06T13:51:45.931Z,3.10
2017-12-06T13:54:14.052Z,3.10
2017-12-06T13:56:42.048Z,3.20
2017-12-06T13:59:10.142Z,3.17
2017-12-06T14:01:38.356Z,3.20
2017-12-06T14:04:06.346Z,2.85
2017-12-06T14:06:34.315Z,2.50
2017-12-06T14:09:02.366Z,2.58
2017-12-06T14:11:31.109Z,2.97
2017-12-06T14:13:59.124Z,3.30
2017-12-06T14:16:27.180Z,2.80
2017-12-06T14:18:55.205Z,2.97
2017-12-06T14:21:23.183Z,3.03
2017-12-06T14:23:51.229Z,3.10
2017-12-06T14:26:19.211Z,4.05
2017-12-06T14:28:47.243Z,7.43
2017-12-06T14:31:15.241Z,7.32
2017-12-06T14:33:43.996Z,7.40
2017-12-06T14:36:12.290Z,7.53
2017-12-06T14:38:40.274Z,8.05
2017-12-06T14:41:08.295Z,9.48
2017-12-06T14:43:36.284Z,8.20
2017-12-06T14:46:04.411Z,15.88
2017-12-06T14:48:32.393Z,11.77
2017-12-06T14:51:00.433Z,24.05
2017-12-06T14:53:29.217Z,11.38
2017-12-06T14:55:57.266Z,10.00
2017-12-06T14:58:25.287Z,9.80
2017-12-06T15:00:53.330Z,9.73
2017-12-06T15:03:22.085Z,9.82
2017-12-06T15:05:50.109Z,10.95
2017-12-06T15:08:18.080Z,11.40
2017-12-06T15:10:46.134Z,12.05
2017-12-06T15:13:14.185Z,9.85
2017-12-06T15:15:42.220Z,9.95
2017-12-06T15:18:10.181Z,9.88
2017-12-06T15:20:38.185Z,10.00
2017-12-06T15:23:06.176Z,9.38
2017-12-06T15:25:34.216Z,10.30
2017-12-06T15:28:02.215Z,9.05
2017-12-06T15:30:30.229Z,10.20
2017-12-06T15:32:58.206Z,11.27
2017-12-06T15:35:26.584Z,10.18
2017-12-06T15:38:07.077Z,10.32
2017-12-06T15:40:35.248Z,10.23
2017-12-06T15:43:03.223Z,11.20
2017-12-06T15:45:31.329Z,9.73
2017-12-06T15:47:59.363Z,11.95
2017-12-06T15:50:27.328Z,11.68
2017-12-06T15:52:55.330Z,11.77
2017-12-06T15:55:23.283Z,12.20
2017-12-06T15:57:51.318Z,12.70
2017-12-06T16:00:19.304Z,11.50
2017-12-06T16:02:47.351Z,11.48
2017-12-06T16:05:15.289Z,9.80
2017-12-06T16:07:43.300Z,10.38
2017-12-06T16:10:11.269Z,12.85
2017-12-06T16:12:39.290Z,12.37
2017-12-06T16:15:07.382Z,10.77
2017-12-06T16:17:35.402Z,11.68
2017-12-06T16:20:03.344Z,11.82
2017-12-06T16:22:31.342Z,12.07
2017-12-06T16:24:59.379Z,10.63
2017-12-06T16:27:27.445Z,11.52
2017-12-06T16:29:55.429Z,12.37
2017-12-06T16:32:23.470Z,10.80
2017-12-06T16:35:03.166Z,10.93
2017-12-06T16:37:31.935Z,10.90
2017-12-06T16:40:00.694Z,14.15
2017-12-06T16:42:28.798Z,12.90
2017-12-06T16:44:56.774Z,13.35
2017-12-06T16:47:24.820Z,12.55
2017-12-06T16:49:53.588Z,12.43
2017-12-06T16:52:21.638Z,13.23
2017-12-06T16:54:49.603Z,14.68
2017-12-06T16:57:19.542Z,14.65
2017-12-06T16:59:47.539Z,13.82
2017-12-06T17:02:16.315Z,13.25
2017-12-06T17:04:44.351Z,15.23
2017-12-06T17:07:12.305Z,14.77
2017-12-06T17:09:40.382Z,14.80
2017-12-06T17:12:08.353Z,14.30
2017-12-06T17:14:36.386Z,17.17
2017-12-06T17:17:04.348Z,14.70
2017-12-06T17:19:32.382Z,17.05
2017-12-06T17:22:00.334Z,17.23
2017-12-06T17:24:28.357Z,16.90
2017-12-06T17:26:56.414Z,15.55
2017-12-06T17:29:36.224Z,16.55
2017-12-06T17:32:04.166Z,15.05
2017-12-06T17:34:32.963Z,15.80
2017-12-06T17:37:00.949Z,13.23
2017-12-06T17:39:29.000Z,15.30
2017-12-06T17:41:57.739Z,16.83
2017-12-06T17:44:26.128Z,17.08
2017-12-06T17:46:56.382Z,14.77
2017-12-06T17:49:25.048Z,17.87
2017-12-06T17:51:53.121Z,16.80
2017-12-06T17:54:21.152Z,16.08
2017-12-06T17:56:50.093Z,16.30
2017-12-06T17:59:18.122Z,14.85
2017-12-06T18:01:46.080Z,17.05
2017-12-06T18:04:14.107Z,16.12
2017-12-06T18:06:42.103Z,15.40
2017-12-06T18:09:10.822Z,16.98
2017-12-06T18:11:38.828Z,16.80
2017-12-06T18:14:06.801Z,14.35
2017-12-06T18:16:34.875Z,16.40
2017-12-06T18:19:02.851Z,14.27
2017-12-06T18:21:30.857Z,15.38
2017-12-06T18:23:58.857Z,18.00
2017-12-06T18:26:26.891Z,15.23
2017-12-06T18:28:55.685Z,16.25
2017-12-06T18:31:23.719Z,16.60
2017-12-06T18:33:51.647Z,15.95
2017-12-06T18:36:24.311Z,15.27
2017-12-06T18:38:52.305Z,14.15
2017-12-06T18:41:20.298Z,13.73
2017-12-06T18:43:48.308Z,14.23
2017-12-06T18:46:24.542Z,14.25
2017-12-06T18:48:52.443Z,17.30
2017-12-06T18:51:20.401Z,13.68
2017-12-06T18:53:48.334Z,14.15
2017-12-06T18:56:20.802Z,14.50
2017-12-06T18:58:55.309Z,14.63
2017-12-06T19:01:29.190Z,13.88
2017-12-06T19:03:57.604Z,13.55
2017-12-06T19:06:25.684Z,12.88
2017-12-06T19:08:53.586Z,14.57
2017-12-06T19:11:21.543Z,13.02
2017-12-06T19:13:49.449Z,13.73
2017-12-06T19:16:18.189Z,12.23
2017-12-06T19:18:46.109Z,13.52
2017-12-06T19:21:15.676Z,13.93
2017-12-06T19:23:44.668Z,15.90
2017-12-06T19:26:12.668Z,13.35
2017-12-06T19:28:41.218Z,13.35
2017-12-06T19:31:09.589Z,12.37
2017-12-06T19:33:38.224Z,12.82
2017-12-06T19:36:13.390Z,11.95
2017-12-06T19:38:42.924Z,13.15
2017-12-06T19:41:11.736Z,12.40
2017-12-06T19:43:40.982Z,13.62
2017-12-06T19:46:10.403Z,12.57
2017-12-06T19:48:39.462Z,13.50
2017-12-06T19:51:08.527Z,14.05
2017-12-06T19:53:37.458Z,13.85
2017-12-06T19:56:07.064Z,14.38
2017-12-06T19:58:35.433Z,13.85
2017-12-06T20:01:03.474Z,14.13
2017-12-06T20:03:31.416Z,14.32
2017-12-06T20:06:00.254Z,12.55
2017-12-06T20:08:29.158Z,12.25
2017-12-06T20:10:58.583Z,13.45
2017-12-06T20:13:27.263Z,13.68
2017-12-06T20:15:56.069Z,14.35
2017-12-06T20:18:28.878Z,13.98
2017-12-06T20:20:57.190Z,15.15
2017-12-06T20:23:25.933Z,15.88
2017-12-06T20:25:54.908Z,15.57
2017-12-06T20:28:23.238Z,14.05
2017-12-06T20:30:51.985Z,15.63
2017-12-06T20:33:26.416Z,16.23
2017-12-06T20:35:54.890Z,15.80
2017-12-06T20:38:23.221Z,15.00
2017-12-06T20:40:51.427Z,14.93
2017-12-06T20:43:19.717Z,16.25
2017-12-06T20:45:47.652Z,17.58
2017-12-06T20:48:15.599Z,15.27
2017-12-06T20:50:44.181Z,16.45
2017-12-06T20:53:12.137Z,15.85
2017-12-06T20:55:40.071Z,15.30
2017-12-06T20:58:08.000Z,15.13
2017-12-06T21:00:36.046Z,14.07
2017-12-06T21:03:04.079Z,14.82
2017-12-06T21:05:32.033Z,15.98
2017-12-06T21:08:00.719Z,14.63
2017-12-06T21:10:29.430Z,15.38
2017-12-06T21:12:58.280Z,14.98
2017-12-06T21:15:26.238Z,15.15
2017-12-06T21:17:54.253Z,15.10
2017-12-06T21:20:23.049Z,15.55
2017-12-06T21:22:50.988Z,14.20
2017-12-06T21:25:20.158Z,16.37
2017-12-06T21:27:48.848Z,15.15
2017-12-06T21:30:16.841Z,15.30
2017-12-06T21:32:45.119Z,16.60
2017-12-06T21:35:13.055Z,14.75
2017-12-06T21:37:41.069Z,15.85
2017-12-06T21:40:09.031Z,15.63
2017-12-06T21:42:41.180Z,15.25
2017-12-06T21:45:09.568Z,14.35
2017-12-06T21:47:37.534Z,15.73
2017-12-06T21:50:05.688Z,15.07
2017-12-06T21:52:33.664Z,14.93
2017-12-06T21:55:04.558Z,14.90
2017-12-06T21:57:33.252Z,12.00
2017-12-06T22:00:01.276Z,11.73
2017-12-06T22:02:29.788Z,11.65
2017-12-06T22:05:11.883Z,9.45
2017-12-06T22:07:40.409Z,8.73
2017-12-06T22:10:08.357Z,7.25
2017-12-06T22:12:36.228Z,7.25
2017-12-06T22:15:04.212Z,5.85
2017-12-06T22:17:34.496Z,6.53
2017-12-06T22:20:02.515Z,6.55
2017-12-06T22:22:30.440Z,5.12
2017-12-06T22:24:58.337Z,5.68
2017-12-06T22:27:26.321Z,4.97
2017-12-06T22:29:54.203Z,4.75
2017-12-06T22:32:22.204Z,6.15
2017-12-06T22:34:50.101Z,5.45
2017-12-06T22:37:18.014Z,5.22
2017-12-06T22:39:45.897Z,5.72
2017-12-06T22:42:13.865Z,5.50
2017-12-06T22:44:41.824Z,5.30
2017-12-06T22:47:09.801Z,5.15
2017-12-06T22:49:37.719Z,4.20
2017-12-06T22:52:05.675Z,4.97
2017-12-06T22:54:34.396Z,3.90
2017-12-06T22:57:02.637Z,5.43
2017-12-06T22:59:30.547Z,5.18
2017-12-06T23:01:58.554Z,4.45
2017-12-06T23:04:26.448Z,4.32
2017-12-06T23:06:55.171Z,4.65
2017-12-06T23:09:23.108Z,4.55
2017-12-06T23:11:51.872Z,4.72
2017-12-06T23:14:19.802Z,5.30
2017-12-06T23:16:47.722Z,5.22
2017-12-06T23:19:15.689Z,6.55
2017-12-06T23:21:43.690Z,7.43
2017-12-06T23:24:12.060Z,6.43
2017-12-06T23:26:40.164Z,7.32
2017-12-06T23:29:08.439Z,6.60
2017-12-06T23:31:36.455Z,8.55
2017-12-06T23:34:04.567Z,8.00
2017-12-06T23:36:32.564Z,7.53
2017-12-06T23:39:00.499Z,8.00
2017-12-06T23:41:28.735Z,8.40
2017-12-06T23:43:56.767Z,8.65
2017-12-06T23:46:29.256Z,7.40
2017-12-06T23:48:57.200Z,7.10
2017-12-06T23:51:25.084Z,7.47
2017-12-06T23:53:53.029Z,8.20
2017-12-06T23:56:20.924Z,7.00
2017-12-06T23:58:48.879Z,7.40
